CheckWX is a tool to help pilots better visualize weather data.  It is not intended as a substitute for an official pre-flight weather briefing.

12:41:05 UTC

KMML METAR
Southwest Minnesota Regional Marshall / Ryan Field Airport
Marshall, Minnesota, USA
Current

45 mins ago

KMML 251156Z AUTO 01006KT 10SM CLR M02/M05 A3036 RMK AO2 SLP297 T10221050 10011 21022 53010 FZRANO
Observed
Mar-25 @ 11:56 UTC
Wind
  • 010° at 6 KTS
Visibility
10 SM
Flight Rules
VFR
Cloud Levels
  • Clear skies
Temperature
-2°C / 28°F
Dewpoint
-5°C / 23°F
Humidity
80%
Altimeter
30.36" Hg
Pressure
1029.7 hPa
Previous

2 hours ago

KMML 251056Z AUTO 02008KT 10SM CLR M02/M05 A3034 RMK AO2 SLP291 T10171050 FZRANO
Observed
Mar-25 @ 10:56 UTC
Wind
  • 020° at 8 KTS
Visibility
10 SM
Flight Rules
VFR
Cloud Levels
  • Clear skies
Temperature
-2°C / 28°F
Dewpoint
-5°C / 23°F
Humidity
80%
Altimeter
30.34" Hg
Pressure
1029.1 hPa
Previous

3 hours ago

KMML 250956Z AUTO 04007KT 10SM CLR M01/M05 A3033 RMK AO2 SLP286 T10111050 FZRANO
Observed
Mar-25 @ 09:56 UTC
Wind
  • 040° at 7 KTS
Visibility
10 SM
Flight Rules
VFR
Cloud Levels
  • Clear skies
Temperature
-1°C / 30°F
Dewpoint
-5°C / 23°F
Humidity
75%
Altimeter
30.33" Hg
Pressure
1028.6 hPa